createdAt,value
2018-03-21T00:02:13.323Z,72.39
2018-03-21T00:04:40.974Z,72.48
2018-03-21T00:07:08.587Z,72.39
2018-03-21T00:09:36.196Z,71.66
2018-03-21T00:12:03.852Z,71.69
2018-03-21T00:14:31.472Z,72.44
2018-03-21T00:16:59.065Z,72.10
2018-03-21T00:19:26.666Z,71.57
2018-03-21T00:21:54.363Z,71.85
2018-03-21T00:24:21.979Z,71.81
2018-03-21T00:26:49.566Z,72.35
2018-03-21T00:29:17.190Z,72.33
2018-03-21T00:31:44.811Z,72.22
2018-03-21T00:34:12.476Z,71.84
2018-03-21T00:36:40.067Z,72.48
2018-03-21T00:39:07.691Z,72.72
2018-03-21T00:41:35.278Z,71.95
2018-03-21T00:44:02.875Z,72.41
2018-03-21T00:46:30.491Z,73.21
2018-03-21T00:48:58.086Z,73.24
2018-03-21T00:51:25.713Z,73.05
2018-03-21T00:53:53.314Z,73.49
2018-03-21T00:56:20.967Z,72.73
2018-03-21T00:58:48.606Z,73.19
2018-03-21T01:01:16.216Z,72.82
2018-03-21T01:03:43.820Z,72.86
2018-03-21T01:06:11.503Z,72.79
2018-03-21T01:08:39.094Z,73.25
2018-03-21T01:11:06.716Z,73.81
2018-03-21T01:13:34.370Z,73.38
2018-03-21T01:16:01.976Z,73.62
2018-03-21T01:18:29.616Z,73.41
2018-03-21T01:20:57.211Z,73.74
2018-03-21T01:23:24.800Z,73.49
2018-03-21T01:25:52.435Z,74.08
2018-03-21T01:28:20.018Z,74.18
2018-03-21T01:30:47.598Z,74.81
2018-03-21T01:33:15.200Z,74.63
2018-03-21T01:35:42.818Z,74.49
2018-03-21T01:38:10.503Z,74.17
2018-03-21T01:40:38.102Z,75.02
2018-03-21T01:43:05.728Z,74.45
2018-03-21T01:45:33.350Z,74.97
2018-03-21T01:48:00.935Z,75.45
2018-03-21T01:50:28.594Z,75.08
2018-03-21T01:53:12.835Z,75.06
2018-03-21T01:55:40.494Z,75.66
2018-03-21T01:58:08.175Z,74.92
2018-03-21T02:00:35.763Z,75.53
2018-03-21T02:03:03.394Z,75.98
2018-03-21T02:05:31.017Z,75.92
2018-03-21T02:07:58.667Z,75.63
2018-03-21T02:10:26.306Z,74.19
2018-03-21T02:12:53.927Z,75.02
2018-03-21T02:15:21.516Z,74.68
2018-03-21T02:17:49.116Z,74.91
2018-03-21T02:20:16.805Z,75.20
2018-03-21T02:22:44.403Z,74.93
2018-03-21T02:25:12.034Z,74.43
2018-03-21T02:27:39.671Z,75.79
2018-03-21T02:30:07.263Z,75.73
2018-03-21T02:32:34.862Z,75.46
2018-03-21T02:35:02.502Z,75.96
2018-03-21T02:37:30.110Z,75.16
2018-03-21T02:39:57.737Z,75.37
2018-03-21T02:42:25.350Z,75.38
2018-03-21T02:44:52.975Z,76.15
2018-03-21T02:47:20.571Z,76.63
2018-03-21T02:49:48.197Z,75.77
2018-03-21T02:52:15.827Z,75.62
2018-03-21T02:54:43.448Z,76.64
2018-03-21T02:57:11.047Z,77.51
2018-03-21T02:59:38.661Z,77.31
2018-03-21T03:02:06.292Z,76.18
2018-03-21T03:04:33.940Z,77.13
2018-03-21T03:07:01.536Z,77.38
2018-03-21T03:09:29.148Z,77.22
2018-03-21T03:11:56.781Z,75.81
2018-03-21T03:14:24.374Z,76.92
2018-03-21T03:16:51.980Z,76.99
2018-03-21T03:19:19.583Z,76.10
2018-03-21T03:21:47.190Z,77.19
2018-03-21T03:24:14.822Z,78.18
2018-03-21T03:26:42.435Z,78.14
2018-03-21T03:29:10.032Z,78.37
2018-03-21T03:31:37.711Z,77.89
2018-03-21T03:34:05.328Z,77.22
2018-03-21T03:36:32.954Z,76.98
2018-03-21T03:39:00.578Z,77.09
2018-03-21T03:41:28.210Z,76.96
2018-03-21T03:43:55.796Z,78.15
2018-03-21T03:46:23.386Z,78.33
2018-03-21T03:48:51.047Z,78.15
2018-03-21T03:51:18.650Z,77.28
2018-03-21T03:53:46.235Z,76.74
2018-03-21T03:56:13.892Z,77.85
2018-03-21T03:58:41.510Z,79.08
2018-03-21T04:01:09.096Z,77.98
2018-03-21T04:03:36.746Z,77.38
2018-03-21T04:06:04.366Z,77.72
2018-03-21T04:08:31.995Z,77.52
2018-03-21T04:10:59.623Z,77.73
2018-03-21T04:13:27.218Z,78.50
2018-03-21T04:15:54.801Z,77.87
2018-03-21T04:18:22.399Z,77.23
2018-03-21T04:20:49.992Z,77.59
2018-03-21T04:23:17.689Z,78.82
2018-03-21T04:25:45.287Z,77.12
2018-03-21T04:28:12.878Z,78.35
2018-03-21T04:30:40.545Z,78.37
2018-03-21T04:33:08.126Z,78.04
2018-03-21T04:35:35.790Z,78.44
2018-03-21T04:38:03.439Z,78.43
2018-03-21T04:40:31.029Z,79.00
2018-03-21T04:42:58.647Z,78.00
2018-03-21T04:45:26.302Z,77.16
2018-03-21T04:47:53.939Z,77.61
2018-03-21T04:50:21.571Z,78.24
2018-03-21T04:52:49.166Z,78.50
2018-03-21T04:55:16.782Z,78.75
2018-03-21T04:57:44.470Z,78.71
2018-03-21T05:00:12.094Z,78.73
2018-03-21T05:02:39.712Z,78.88
2018-03-21T05:05:07.407Z,78.33
2018-03-21T05:07:35.015Z,78.51
2018-03-21T05:10:02.615Z,78.79
2018-03-21T05:12:30.283Z,78.82
2018-03-21T05:14:57.884Z,78.47
2018-03-21T05:17:25.506Z,78.48
2018-03-21T05:19:53.122Z,77.80
2018-03-21T05:22:20.875Z,78.09
2018-03-21T05:24:49.347Z,77.80
2018-03-21T05:27:16.977Z,78.16
2018-03-21T05:29:44.589Z,78.06
2018-03-21T05:32:12.202Z,78.84
2018-03-21T05:34:39.822Z,78.58
2018-03-21T05:37:07.408Z,78.54
2018-03-21T05:39:34.998Z,79.38
2018-03-21T05:42:02.593Z,79.49
2018-03-21T05:44:30.187Z,79.51
2018-03-21T05:46:57.838Z,79.28
2018-03-21T05:49:25.454Z,78.99
2018-03-21T05:51:53.035Z,78.80
2018-03-21T05:54:20.670Z,77.91
2018-03-21T05:56:48.295Z,77.92
2018-03-21T05:59:15.886Z,78.74
2018-03-21T06:01:43.505Z,78.71
2018-03-21T06:04:11.172Z,78.35
2018-03-21T06:06:38.784Z,78.17
2018-03-21T06:09:06.441Z,77.63
2018-03-21T06:11:34.129Z,77.75
2018-03-21T06:14:01.765Z,78.20
2018-03-21T06:16:29.359Z,79.30
2018-03-21T06:18:57.047Z,79.11
2018-03-21T06:21:24.754Z,78.97
2018-03-21T06:23:52.368Z,79.13
2018-03-21T06:26:20.039Z,79.22
2018-03-21T06:28:47.676Z,78.41
2018-03-21T06:31:15.279Z,79.15
2018-03-21T06:33:42.945Z,79.84
2018-03-21T06:36:10.531Z,79.45
2018-03-21T06:38:38.170Z,79.74
2018-03-21T06:41:05.863Z,79.42
2018-03-21T06:43:33.499Z,79.61
2018-03-21T06:46:01.098Z,80.34
2018-03-21T06:48:28.746Z,80.38
2018-03-21T06:50:56.369Z,82.41
2018-03-21T06:53:24.019Z,82.23
2018-03-21T06:55:51.619Z,81.44
2018-03-21T06:58:19.274Z,81.17
2018-03-21T07:00:46.982Z,80.87
2018-03-21T07:03:14.594Z,79.86
2018-03-21T07:05:42.327Z,80.09
2018-03-21T07:08:09.955Z,79.89
2018-03-21T07:10:37.768Z,79.57
2018-03-21T07:13:05.355Z,79.60
2018-03-21T07:15:44.647Z,81.04
2018-03-21T07:18:12.242Z,80.42
2018-03-21T07:20:39.944Z,80.83
2018-03-21T07:23:07.597Z,80.17
2018-03-21T07:25:35.193Z,80.74
2018-03-21T07:28:02.818Z,81.50
2018-03-21T07:30:30.455Z,82.05
2018-03-21T07:32:58.050Z,82.13
2018-03-21T07:35:25.643Z,81.18
2018-03-21T07:37:53.347Z,79.74
2018-03-21T07:40:20.943Z,80.33
2018-03-21T07:42:48.553Z,80.35
2018-03-21T07:45:16.179Z,80.09
2018-03-21T07:47:43.803Z,80.68
2018-03-21T07:50:11.387Z,80.65
2018-03-21T07:52:39.015Z,80.40
2018-03-21T07:55:06.635Z,79.77
2018-03-21T07:57:34.235Z,80.05
2018-03-21T08:00:01.862Z,78.73
2018-03-21T08:02:29.598Z,78.30
2018-03-21T08:04:57.191Z,79.54
2018-03-21T08:07:24.879Z,79.50
2018-03-21T08:09:52.481Z,79.20
2018-03-21T08:12:20.146Z,78.96
2018-03-21T08:14:47.731Z,77.20
2018-03-21T08:17:15.322Z,78.64
2018-03-21T08:19:42.919Z,79.03
2018-03-21T08:22:10.539Z,80.31
2018-03-21T08:24:38.162Z,79.86
2018-03-21T08:27:05.749Z,79.02
2018-03-21T08:29:33.352Z,78.52
2018-03-21T08:32:01.007Z,77.48
2018-03-21T08:34:28.656Z,77.80
2018-03-21T08:36:56.247Z,76.74
2018-03-21T08:39:23.879Z,77.66
2018-03-21T08:41:51.495Z,78.32
2018-03-21T08:44:19.104Z,78.30
2018-03-21T08:46:46.842Z,77.98
2018-03-21T08:49:14.436Z,77.70
2018-03-21T08:51:42.037Z,76.69
2018-03-21T08:54:09.715Z,76.01
2018-03-21T08:56:37.295Z,75.17
2018-03-21T08:59:04.902Z,77.04
2018-03-21T09:01:32.538Z,77.12
2018-03-21T09:04:00.139Z,77.98
2018-03-21T09:06:27.748Z,75.76
2018-03-21T09:08:55.374Z,74.25
2018-03-21T09:11:22.976Z,73.23
2018-03-21T09:13:50.607Z,72.71
2018-03-21T09:16:18.227Z,71.64
2018-03-21T09:18:45.847Z,73.09
2018-03-21T09:21:13.487Z,72.36
2018-03-21T09:23:41.071Z,73.38
2018-03-21T09:26:08.728Z,73.09
2018-03-21T09:28:36.336Z,73.00
2018-03-21T09:31:03.959Z,74.11
2018-03-21T09:33:31.605Z,74.50
2018-03-21T09:35:59.369Z,72.99
2018-03-21T09:38:26.987Z,72.53
2018-03-21T09:40:54.606Z,71.77
2018-03-21T09:43:22.352Z,71.05
2018-03-21T09:45:50.021Z,72.35
2018-03-21T09:48:17.659Z,73.40
2018-03-21T09:50:45.327Z,73.28
2018-03-21T09:53:12.922Z,73.78
2018-03-21T09:55:40.522Z,74.60
2018-03-21T09:58:08.211Z,73.83
2018-03-21T10:00:35.832Z,73.39
2018-03-21T10:03:03.538Z,73.91
2018-03-21T10:05:31.418Z,73.43
2018-03-21T10:07:59.249Z,73.67
2018-03-21T10:10:26.920Z,72.97
2018-03-21T10:12:54.583Z,72.20
2018-03-21T10:15:22.202Z,72.18
2018-03-21T10:17:49.849Z,73.06
2018-03-21T10:20:17.439Z,74.12
2018-03-21T10:22:45.059Z,72.25
2018-03-21T10:25:12.730Z,72.32
2018-03-21T10:27:40.355Z,71.55
2018-03-21T10:30:07.951Z,70.45
2018-03-21T10:32:35.592Z,70.25
2018-03-21T10:35:03.240Z,69.78
2018-03-21T10:37:30.841Z,71.49
2018-03-21T10:39:58.472Z,70.11
2018-03-21T10:42:26.103Z,68.34
2018-03-21T10:44:53.769Z,69.78
2018-03-21T10:47:21.412Z,68.38
2018-03-21T10:49:49.082Z,67.27
2018-03-21T10:52:16.748Z,67.41
2018-03-21T10:54:44.348Z,68.24
2018-03-21T10:57:11.943Z,69.16
2018-03-21T10:59:39.536Z,68.83
2018-03-21T11:02:12.775Z,70.38
2018-03-21T11:04:40.402Z,68.63
2018-03-21T11:07:08.002Z,70.57
2018-03-21T11:09:35.670Z,72.12
2018-03-21T11:12:03.322Z,72.98
2018-03-21T11:14:30.916Z,72.84
2018-03-21T11:16:58.507Z,71.12
2018-03-21T11:19:26.130Z,71.10
2018-03-21T11:21:53.747Z,71.69
2018-03-21T11:24:21.395Z,72.23
2018-03-21T11:26:49.125Z,71.86
2018-03-21T11:29:16.722Z,70.71
2018-03-21T11:31:44.316Z,69.82
2018-03-21T11:34:11.995Z,70.20
2018-03-21T11:36:39.571Z,70.08
2018-03-21T11:39:07.163Z,70.27
2018-03-21T11:41:34.792Z,70.58
2018-03-21T11:44:02.382Z,71.76
2018-03-21T11:46:30.047Z,71.43
2018-03-21T11:48:57.644Z,71.16
2018-03-21T11:51:25.267Z,72.93
2018-03-21T11:53:52.899Z,72.62
2018-03-21T11:56:20.496Z,73.78
2018-03-21T11:58:48.157Z,72.90
2018-03-21T12:01:15.786Z,73.61
2018-03-21T12:03:43.379Z,72.43
2018-03-21T12:06:11.008Z,72.95
2018-03-21T12:08:38.649Z,72.71
2018-03-21T12:11:06.251Z,73.52
2018-03-21T12:13:33.911Z,75.23
2018-03-21T12:16:01.521Z,74.77
2018-03-21T12:18:29.160Z,73.47
2018-03-21T12:20:56.783Z,74.52
2018-03-21T12:23:24.388Z,73.51
2018-03-21T12:25:52.051Z,73.08
2018-03-21T12:28:19.647Z,72.66
2018-03-21T12:30:51.943Z,69.55
2018-03-21T12:33:19.546Z,66.47
2018-03-21T12:35:47.683Z,65.34
2018-03-21T12:38:16.403Z,63.97
2018-03-21T12:40:44.071Z,62.91
2018-03-21T12:43:11.768Z,63.55
2018-03-21T12:45:39.391Z,63.37
2018-03-21T12:48:07.123Z,66.97
2018-03-21T12:50:34.784Z,64.02
2018-03-21T12:53:02.409Z,62.40
2018-03-21T12:55:30.048Z,61.66
2018-03-21T12:57:57.767Z,59.60
2018-03-21T13:00:25.387Z,58.63
2018-03-21T13:02:53.038Z,61.42
2018-03-21T13:05:20.719Z,58.16
2018-03-21T13:07:48.396Z,57.23
2018-03-21T13:10:16.115Z,54.00
2018-03-21T13:12:43.832Z,55.62
2018-03-21T13:15:11.460Z,57.24
2018-03-21T13:17:39.204Z,56.38
2018-03-21T13:20:06.934Z,57.04
2018-03-21T13:22:34.529Z,59.11
2018-03-21T13:25:02.175Z,60.60
2018-03-21T13:27:29.804Z,58.74
2018-03-21T13:29:57.419Z,57.42
2018-03-21T13:32:25.016Z,58.02
2018-03-21T13:34:52.637Z,57.43
2018-03-21T13:37:20.279Z,56.29
2018-03-21T13:39:47.911Z,54.97
2018-03-21T13:42:15.563Z,54.00
2018-03-21T13:44:43.200Z,55.13
2018-03-21T13:47:10.867Z,55.75
2018-03-21T13:49:38.471Z,57.74
2018-03-21T13:52:06.115Z,57.07
2018-03-21T13:54:33.706Z,56.35
2018-03-21T13:57:01.295Z,55.03
2018-03-21T13:59:28.941Z,57.40
2018-03-21T14:01:56.540Z,57.31
2018-03-21T14:04:24.152Z,57.29
2018-03-21T14:06:51.977Z,55.99
2018-03-21T14:09:19.631Z,56.36
2018-03-21T14:11:47.224Z,57.17
2018-03-21T14:14:14.819Z,58.24
2018-03-21T14:16:42.539Z,58.14
2018-03-21T14:19:10.196Z,59.01
2018-03-21T14:21:37.804Z,59.15
2018-03-21T14:24:05.434Z,59.81
2018-03-21T14:26:33.032Z,59.20
2018-03-21T14:29:00.614Z,59.19
2018-03-21T14:31:29.143Z,60.09
2018-03-21T14:33:56.749Z,61.91
2018-03-21T14:36:24.341Z,60.60
2018-03-21T14:38:52.007Z,61.54
2018-03-21T14:41:19.617Z,61.07
2018-03-21T14:43:47.226Z,61.37
2018-03-21T14:46:14.935Z,61.21
2018-03-21T14:48:42.531Z,61.54
2018-03-21T14:51:10.147Z,61.59
2018-03-21T14:53:37.813Z,61.16
2018-03-21T14:56:05.450Z,60.99
2018-03-21T14:58:33.067Z,61.41
2018-03-21T15:01:00.659Z,61.73
2018-03-21T15:03:28.308Z,60.88
2018-03-21T15:05:55.934Z,62.11
2018-03-21T15:08:23.534Z,61.98
2018-03-21T15:10:51.180Z,61.81
2018-03-21T15:13:29.032Z,62.63
2018-03-21T15:15:56.623Z,63.21
2018-03-21T15:18:24.259Z,62.59
2018-03-21T15:20:51.912Z,62.47
2018-03-21T15:23:19.507Z,62.75
2018-03-21T15:25:47.176Z,63.07
2018-03-21T15:28:14.794Z,63.53
2018-03-21T15:30:43.027Z,64.13
2018-03-21T15:33:10.674Z,64.05
2018-03-21T15:35:38.273Z,65.23
2018-03-21T15:38:05.954Z,64.59
2018-03-21T15:40:33.542Z,64.70
2018-03-21T15:43:01.160Z,65.03
2018-03-21T15:45:28.826Z,65.22
2018-03-21T15:47:56.447Z,65.09
2018-03-21T15:50:24.038Z,64.66
2018-03-21T15:52:51.759Z,63.78
2018-03-21T15:55:19.383Z,63.95
2018-03-21T15:57:47.107Z,65.22
2018-03-21T16:00:14.818Z,65.60
2018-03-21T16:02:42.415Z,65.71
2018-03-21T16:05:10.053Z,66.50
2018-03-21T16:07:37.715Z,66.84
2018-03-21T16:10:05.307Z,67.21
2018-03-21T16:12:32.921Z,67.14
2018-03-21T16:15:00.572Z,67.57
2018-03-21T16:17:28.224Z,67.30
2018-03-21T16:19:56.003Z,67.07
2018-03-21T16:22:24.009Z,67.53
2018-03-21T16:24:52.737Z,67.89
2018-03-21T16:27:20.402Z,67.53
2018-03-21T16:29:48.025Z,68.10
2018-03-21T16:32:15.672Z,68.17
2018-03-21T16:34:43.411Z,68.29
2018-03-21T16:37:11.024Z,68.51
2018-03-21T16:39:38.627Z,69.91
2018-03-21T16:42:06.296Z,71.42
2018-03-21T16:44:34.236Z,72.32
2018-03-21T16:47:01.921Z,72.40
2018-03-21T16:49:29.624Z,73.00
2018-03-21T16:51:57.283Z,73.62
2018-03-21T16:54:24.932Z,74.20
2018-03-21T16:56:52.527Z,74.09
2018-03-21T16:59:20.129Z,73.24
2018-03-21T17:01:47.739Z,72.58
2018-03-21T17:04:15.339Z,72.50
2018-03-21T17:06:42.967Z,72.92
2018-03-21T17:09:10.569Z,72.72
2018-03-21T17:11:38.166Z,72.15
2018-03-21T17:14:05.815Z,72.18
2018-03-21T17:16:33.420Z,72.49
2018-03-21T17:19:01.038Z,73.30
2018-03-21T17:21:28.685Z,72.99
2018-03-21T17:23:56.371Z,73.34
2018-03-21T17:26:23.981Z,73.12
2018-03-21T17:28:51.587Z,72.77
2018-03-21T17:31:19.385Z,72.61
2018-03-21T17:33:47.100Z,72.92
2018-03-21T17:36:15.128Z,72.60
2018-03-21T17:38:42.844Z,72.34
2018-03-21T17:41:10.480Z,73.23
2018-03-21T17:43:38.121Z,73.19
2018-03-21T17:46:05.768Z,74.12
2018-03-21T17:48:33.379Z,75.56
2018-03-21T17:51:01.179Z,74.51
2018-03-21T17:53:28.860Z,73.98
2018-03-21T17:55:56.633Z,75.22
2018-03-21T17:58:24.263Z,75.71
2018-03-21T18:00:51.910Z,76.03
2018-03-21T18:03:19.527Z,75.88
2018-03-21T18:05:47.143Z,76.38
2018-03-21T18:08:14.864Z,75.61
2018-03-21T18:10:42.471Z,76.06
2018-03-21T18:13:10.070Z,76.18
2018-03-21T18:15:37.678Z,76.24
2018-03-21T18:18:05.289Z,77.06
2018-03-21T18:20:32.967Z,77.73
2018-03-21T18:23:00.610Z,77.38
2018-03-21T18:25:28.327Z,77.01
2018-03-21T18:27:56.069Z,76.73
2018-03-21T18:30:23.667Z,77.04
2018-03-21T18:32:51.303Z,77.09
2018-03-21T18:35:18.898Z,76.18
2018-03-21T18:37:46.554Z,75.90
2018-03-21T18:40:14.167Z,76.25
2018-03-21T18:42:41.763Z,77.07
2018-03-21T18:45:09.394Z,76.29
2018-03-21T18:47:37.010Z,77.09
2018-03-21T18:50:04.611Z,77.14
2018-03-21T18:52:32.275Z,77.06
2018-03-21T18:54:59.903Z,76.96
2018-03-21T18:57:27.493Z,75.87
2018-03-21T18:59:55.135Z,75.79
2018-03-21T19:02:22.743Z,76.84
2018-03-21T19:04:50.343Z,76.10
2018-03-21T19:07:17.996Z,76.28
2018-03-21T19:09:45.615Z,76.42
2018-03-21T19:12:13.233Z,75.66
2018-03-21T19:14:40.923Z,76.85
2018-03-21T19:17:08.521Z,77.17
2018-03-21T19:19:36.117Z,77.07
2018-03-21T19:22:03.759Z,77.09
2018-03-21T19:24:31.355Z,77.45
2018-03-21T19:26:59.043Z,77.65
2018-03-21T19:29:26.803Z,77.32
2018-03-21T19:31:54.454Z,77.92
2018-03-21T19:34:22.060Z,77.82
2018-03-21T19:36:49.659Z,78.01
2018-03-21T19:39:17.255Z,77.59
2018-03-21T19:41:44.888Z,76.87
2018-03-21T19:44:12.493Z,77.09
2018-03-21T19:46:40.092Z,77.78
2018-03-21T19:49:07.756Z,77.21
2018-03-21T19:51:35.423Z,76.73
2018-03-21T19:54:03.228Z,78.25
2018-03-21T19:56:31.794Z,78.65
2018-03-21T19:58:59.408Z,78.43
2018-03-21T20:01:27.049Z,78.41
2018-03-21T20:03:54.696Z,78.83
2018-03-21T20:06:22.291Z,79.40
2018-03-21T20:08:49.916Z,77.22
2018-03-21T20:11:17.506Z,73.83
2018-03-21T20:13:45.119Z,71.00
2018-03-21T20:16:12.743Z,69.41
2018-03-21T20:18:40.336Z,67.73
2018-03-21T20:21:07.950Z,66.80
2018-03-21T20:23:35.577Z,66.24
2018-03-21T20:26:03.182Z,65.06
2018-03-21T20:28:30.771Z,65.18
2018-03-21T20:30:58.391Z,63.45
2018-03-21T20:33:26.012Z,63.19
2018-03-21T20:35:53.667Z,64.01
2018-03-21T20:38:21.301Z,63.99
2018-03-21T20:40:48.895Z,62.86
2018-03-21T20:43:16.491Z,63.77
2018-03-21T20:45:44.120Z,64.39
2018-03-21T20:48:11.747Z,64.04
2018-03-21T20:50:39.394Z,63.50
2018-03-21T20:53:07.007Z,63.78
2018-03-21T20:55:34.626Z,63.45
2018-03-21T20:58:02.251Z,63.63
2018-03-21T21:00:29.842Z,63.84
2018-03-21T21:02:57.479Z,64.00
2018-03-21T21:05:25.068Z,64.38
2018-03-21T21:07:52.674Z,62.89
2018-03-21T21:10:20.363Z,63.24
2018-03-21T21:12:47.991Z,63.75
2018-03-21T21:15:15.607Z,63.40
2018-03-21T21:17:43.239Z,63.83
2018-03-21T21:20:10.835Z,63.13
2018-03-21T21:22:38.427Z,62.88
2018-03-21T21:25:06.075Z,63.75
2018-03-21T21:27:33.771Z,63.02
2018-03-21T21:30:01.395Z,62.32
2018-03-21T21:32:29.012Z,62.77
2018-03-21T21:34:56.627Z,62.21
2018-03-21T21:37:24.295Z,62.43
2018-03-21T21:39:52.000Z,63.17
2018-03-21T21:42:19.642Z,62.84
2018-03-21T21:44:47.291Z,62.59
2018-03-21T21:47:14.916Z,61.45
2018-03-21T21:49:42.543Z,61.98
2018-03-21T21:52:10.207Z,62.11
2018-03-21T21:54:37.803Z,61.67
2018-03-21T21:57:05.447Z,61.71
2018-03-21T21:59:33.023Z,61.68
2018-03-21T22:02:00.611Z,60.91
2018-03-21T22:04:28.283Z,61.66
2018-03-21T22:06:55.917Z,61.40
2018-03-21T22:09:23.764Z,59.97
2018-03-21T22:11:51.418Z,59.93
2018-03-21T22:14:19.083Z,60.33
2018-03-21T22:16:46.743Z,61.14
2018-03-21T22:19:14.331Z,61.69
2018-03-21T22:21:41.979Z,61.08
2018-03-21T22:24:09.632Z,59.99
2018-03-21T22:26:37.234Z,60.04
2018-03-21T22:29:04.830Z,59.88
2018-03-21T22:31:32.458Z,60.89
2018-03-21T22:34:00.059Z,60.71
2018-03-21T22:36:30.751Z,59.84
2018-03-21T22:38:58.383Z,60.37
2018-03-21T22:41:25.974Z,60.35
2018-03-21T22:43:53.589Z,60.66
2018-03-21T22:46:21.182Z,59.96
2018-03-21T22:48:48.775Z,60.30
2018-03-21T22:51:16.402Z,59.79
2018-03-21T22:53:44.020Z,59.82
2018-03-21T22:56:11.603Z,59.75
2018-03-21T22:58:39.271Z,60.41
2018-03-21T23:01:06.868Z,59.57
2018-03-21T23:03:34.471Z,59.11
2018-03-21T23:06:02.115Z,59.26
2018-03-21T23:08:29.805Z,59.53
2018-03-21T23:10:57.411Z,59.74
2018-03-21T23:13:25.027Z,58.89
2018-03-21T23:15:52.726Z,59.31
2018-03-21T23:18:20.287Z,59.65
2018-03-21T23:20:47.907Z,59.06
2018-03-21T23:23:15.536Z,59.05
2018-03-21T23:25:43.167Z,60.14
2018-03-21T23:28:10.760Z,59.73
2018-03-21T23:30:38.390Z,59.37
2018-03-21T23:33:05.981Z,60.05
2018-03-21T23:35:33.650Z,59.50
2018-03-21T23:38:01.251Z,58.60
2018-03-21T23:40:28.880Z,59.21
2018-03-21T23:42:56.516Z,58.89
2018-03-21T23:45:24.114Z,58.93
2018-03-21T23:47:51.800Z,58.74
2018-03-21T23:50:19.460Z,57.78
2018-03-21T23:52:47.068Z,58.67
2018-03-21T23:55:14.672Z,58.97
2018-03-21T23:57:42.391Z,58.56
